CYPR/YPR METAR and TAF weather

Enter ICAO airport designator
Station Type Date Time Source
CYPR METAR 2018/01/19 17:00 UTC NOAA

CYPR 191700Z AUTO 34002KT 9SM BKN090 OVC120 04/03 A2953 RMK SLP002


Station Type Date Time Source
CYPR Decoded METAR 2018/01/19 17:00 UTC NOAA

Prince Rupert, B. C., Canada (CYPR) 54-18N 130-26W 34M
Jan 19, 2018 - 12:00 PM EST / 2018.01.19 1700 UTC
Wind: from the NNW (340 degrees) at 2 MPH (2 KT):0
Visibility: 9 mile(s):0
Sky conditions: overcast
Temperature: 39 F (4 C)
Dew Point: 37 F (3 C)
Relative Humidity: 93%
Pressure (altimeter): 29.53 in. Hg (1000 hPa)
ob: CYPR 191700Z AUTO 34002KT 9SM BKN090 OVC120 04/03 A2953 RMK SLP002
cycle: 17

Station Type Date Time Source
CYPR TAF 2018/01/19 13:39 UTC NOAA

TAF CYPR 191238Z 1913/2001 VRB03KT P6SM BKN050
TEMPO 1913/2001 P6SM -SHRA
BECMG 1914/1916 05006KT
RMK FCST BASED ON AUTO OBS. NXT FCST BY 191900Z


Example: see airport list